createdAt,value
2022-10-01T00:00:10.570Z,955.5600
2022-10-01T00:00:21.641Z,955.5600
2022-10-01T00:00:32.769Z,955.5600
2022-10-01T00:00:43.886Z,955.5600
2022-10-01T00:00:54.949Z,955.5600
2022-10-01T00:01:06.361Z,955.5600
2022-10-01T00:01:17.506Z,955.5600
2022-10-01T00:01:28.608Z,955.5800
2022-10-01T00:01:39.818Z,955.5600
2022-10-01T00:01:50.919Z,955.5600
2022-10-01T00:02:02.018Z,955.5600
2022-10-01T00:02:13.116Z,955.5600
2022-10-01T00:02:24.207Z,955.5600
2022-10-01T00:02:35.392Z,955.5600
2022-10-01T00:02:46.577Z,955.5600
2022-10-01T00:02:57.822Z,955.5600
2022-10-01T00:03:09.135Z,955.5600
2022-10-01T00:03:20.270Z,955.5600
2022-10-01T00:03:31.361Z,955.5600
2022-10-01T00:03:42.474Z,955.5800
2022-10-01T00:03:53.564Z,955.5800
2022-10-01T00:04:04.616Z,955.5800
2022-10-01T00:04:15.698Z,955.5800
2022-10-01T00:04:26.752Z,955.5800
2022-10-01T00:04:37.912Z,955.5800
2022-10-01T00:04:48.947Z,955.5600
2022-10-01T00:05:21.008Z,955.5600
2022-10-01T00:05:32.055Z,955.5800
2022-10-01T00:05:43.138Z,955.5600
2022-10-01T00:05:54.178Z,955.5800
2022-10-01T00:06:05.238Z,955.5600
2022-10-01T00:06:16.301Z,955.5600
2022-10-01T00:06:27.362Z,955.5600
2022-10-01T00:06:38.412Z,955.5600
2022-10-01T00:06:49.475Z,955.5600
2022-10-01T00:07:00.511Z,955.5400
2022-10-01T00:07:11.575Z,955.5600
2022-10-01T00:07:22.651Z,955.5600
2022-10-01T00:07:33.701Z,955.5600
2022-10-01T00:07:44.751Z,955.5400
2022-10-01T00:07:55.939Z,955.5400
2022-10-01T00:08:06.981Z,955.5200
2022-10-01T00:08:18.031Z,955.5400
2022-10-01T00:08:29.123Z,955.5200
2022-10-01T00:08:40.207Z,955.5200
2022-10-01T00:08:51.273Z,955.5200
2022-10-01T00:09:02.338Z,955.5400
2022-10-01T00:09:13.391Z,955.5400
2022-10-01T00:09:24.433Z,955.5400
2022-10-01T00:09:35.496Z,955.5600
2022-10-01T00:09:46.562Z,955.5600
2022-10-01T00:09:57.736Z,955.5600
2022-10-01T00:10:08.801Z,955.5600
2022-10-01T00:10:19.871Z,955.5600
2022-10-01T00:10:30.911Z,955.5600
2022-10-01T00:10:41.951Z,955.5600
2022-10-01T00:10:53.019Z,955.5600
2022-10-01T00:11:04.081Z,955.5600
2022-10-01T00:11:15.122Z,955.5400
2022-10-01T00:11:26.197Z,955.5400
2022-10-01T00:11:37.259Z,955.5600
2022-10-01T00:11:48.302Z,955.5400
2022-10-01T00:11:59.361Z,955.5600
2022-10-01T00:12:10.421Z,955.5600
2022-10-01T00:12:21.471Z,955.5400
2022-10-01T00:12:32.615Z,955.5600
2022-10-01T00:12:43.700Z,955.5400
2022-10-01T00:12:54.741Z,955.5600
2022-10-01T00:13:05.844Z,955.5600
2022-10-01T00:13:16.894Z,955.5400
2022-10-01T00:13:28.043Z,955.5200
2022-10-01T00:13:39.112Z,955.5400
2022-10-01T00:13:50.171Z,955.5400
2022-10-01T00:14:01.241Z,955.5400
2022-10-01T00:14:12.292Z,955.5400
2022-10-01T00:14:23.362Z,955.5400
2022-10-01T00:14:34.412Z,955.5600
2022-10-01T00:14:45.473Z,955.5000
2022-10-01T00:14:56.533Z,955.5000
2022-10-01T00:15:09.771Z,955.5000
2022-10-01T00:15:22.951Z,955.5200
2022-10-01T00:15:33.991Z,955.5000
2022-10-01T00:15:45.051Z,955.5200
2022-10-01T00:15:56.123Z,955.5000
2022-10-01T00:16:07.230Z,955.5000
2022-10-01T00:16:18.368Z,955.5000
2022-10-01T00:16:29.492Z,955.5000
2022-10-01T00:16:40.560Z,955.5000
2022-10-01T00:16:51.628Z,955.5000
2022-10-01T00:17:02.697Z,955.5000
2022-10-01T00:17:13.721Z,955.4800
2022-10-01T00:17:24.795Z,955.5200
2022-10-01T00:17:35.853Z,955.5000
2022-10-01T00:17:46.903Z,955.5000
2022-10-01T00:17:57.972Z,955.5200
2022-10-01T00:18:09.052Z,955.5000
2022-10-01T00:18:20.101Z,955.5000
2022-10-01T00:18:31.171Z,955.4800
2022-10-01T00:18:42.229Z,955.5000
2022-10-01T00:18:53.302Z,955.4800
2022-10-01T00:19:04.352Z,955.4600
2022-10-01T00:19:15.411Z,955.4600
2022-10-01T00:19:26.479Z,955.4600
2022-10-01T00:19:37.542Z,955.4600
2022-10-01T00:19:48.601Z,955.4600
2022-10-01T00:19:59.670Z,955.4600
2022-10-01T00:20:14.478Z,955.4600
2022-10-01T00:20:26.015Z,955.4600
2022-10-01T00:20:37.035Z,955.4200
2022-10-01T00:20:48.082Z,955.3800
2022-10-01T00:20:59.152Z,955.4400
2022-10-01T00:21:10.221Z,955.4400
2022-10-01T00:21:21.295Z,955.4400
2022-10-01T00:21:32.625Z,955.4200
2022-10-01T00:21:44.072Z,955.4200
2022-10-01T00:21:55.132Z,955.4200
2022-10-01T00:22:06.191Z,955.4200
2022-10-01T00:22:17.311Z,955.3700
2022-10-01T00:22:28.429Z,955.3700
2022-10-01T00:22:39.491Z,955.3700
2022-10-01T00:22:50.552Z,955.3700
2022-10-01T00:23:01.611Z,955.3700
2022-10-01T00:23:12.722Z,955.3700
2022-10-01T00:23:23.799Z,955.3700
2022-10-01T00:23:34.870Z,955.3500
2022-10-01T00:23:45.932Z,955.3500
2022-10-01T00:23:56.981Z,955.3500
2022-10-01T00:24:08.042Z,955.3500
2022-10-01T00:24:19.111Z,955.3500
2022-10-01T00:24:30.180Z,955.3500
2022-10-01T00:24:41.233Z,955.3300
2022-10-01T00:24:52.303Z,955.3300
2022-10-01T00:25:03.386Z,955.3300
2022-10-01T00:25:14.442Z,955.3300
2022-10-01T00:25:25.489Z,955.3500
2022-10-01T00:25:36.552Z,955.3500
2022-10-01T00:25:47.601Z,955.3500
2022-10-01T00:25:58.662Z,955.3700
2022-10-01T00:26:09.717Z,955.3700
2022-10-01T00:26:20.762Z,955.3500
2022-10-01T00:26:31.821Z,955.3500
2022-10-01T00:26:42.862Z,955.3700
2022-10-01T00:26:53.921Z,955.3700
2022-10-01T00:27:04.991Z,955.3700
2022-10-01T00:27:16.051Z,955.3700
2022-10-01T00:27:27.081Z,955.3700
2022-10-01T00:27:38.141Z,955.3700
2022-10-01T00:27:49.286Z,955.3800
2022-10-01T00:28:00.433Z,955.3800
2022-10-01T00:28:11.556Z,955.3800
2022-10-01T00:28:22.687Z,955.3700
2022-10-01T00:28:33.722Z,955.3700
2022-10-01T00:28:44.761Z,955.3800
2022-10-01T00:28:55.821Z,955.4000
2022-10-01T00:29:06.874Z,955.4000
2022-10-01T00:29:17.924Z,955.4000
2022-10-01T00:29:29.051Z,955.4000
2022-10-01T00:29:40.155Z,955.3800
2022-10-01T00:29:51.202Z,955.4200
2022-10-01T00:30:02.282Z,955.4200
2022-10-01T00:30:13.341Z,955.4400
2022-10-01T00:30:24.401Z,955.4200
2022-10-01T00:30:40.139Z,955.3700
2022-10-01T00:30:52.418Z,955.4000
2022-10-01T00:31:03.545Z,955.4000
2022-10-01T00:31:14.669Z,955.4000
2022-10-01T00:31:25.859Z,955.3800
2022-10-01T00:31:37.620Z,955.4000
2022-10-01T00:31:49.266Z,955.4000
2022-10-01T00:32:00.469Z,955.3800
2022-10-01T00:32:11.560Z,955.3800
2022-10-01T00:32:22.611Z,955.4200
2022-10-01T00:32:33.659Z,955.3700
2022-10-01T00:32:44.768Z,955.3700
2022-10-01T00:32:55.802Z,955.3700
2022-10-01T00:33:06.862Z,955.3500
2022-10-01T00:33:17.922Z,955.3500
2022-10-01T00:33:29.013Z,955.3500
2022-10-01T00:33:40.071Z,955.3500
2022-10-01T00:33:51.147Z,955.3500
2022-10-01T00:34:02.239Z,955.3500
2022-10-01T00:34:13.310Z,955.3300
2022-10-01T00:34:24.351Z,955.3300
2022-10-01T00:34:35.431Z,955.3500
2022-10-01T00:34:46.500Z,955.3500
2022-10-01T00:34:57.569Z,955.3500
2022-10-01T00:35:08.631Z,955.3500
2022-10-01T00:35:19.672Z,955.3500
2022-10-01T00:35:30.775Z,955.3500
2022-10-01T00:35:41.852Z,955.3800
2022-10-01T00:35:52.920Z,955.3700
2022-10-01T00:36:03.981Z,955.3700
2022-10-01T00:36:15.081Z,955.3700
2022-10-01T00:36:26.198Z,955.3800
2022-10-01T00:36:37.300Z,955.3700
2022-10-01T00:36:48.351Z,955.3800
2022-10-01T00:36:59.430Z,955.3800
2022-10-01T00:37:10.561Z,955.3700
2022-10-01T00:37:21.638Z,955.3700
2022-10-01T00:37:32.672Z,955.3800
2022-10-01T00:37:43.712Z,955.3800
2022-10-01T00:37:54.771Z,955.3800
2022-10-01T00:38:05.815Z,955.3800
2022-10-01T00:38:16.881Z,955.4000
2022-10-01T00:38:27.952Z,955.4200
2022-10-01T00:38:39.037Z,955.3800
2022-10-01T00:38:50.071Z,955.3800
2022-10-01T00:39:01.158Z,955.4200
2022-10-01T00:39:12.229Z,955.4200
2022-10-01T00:39:23.312Z,955.4000
2022-10-01T00:39:34.432Z,955.4000
2022-10-01T00:39:45.502Z,955.4000
2022-10-01T00:39:56.561Z,955.3800
2022-10-01T00:40:07.631Z,955.4000
2022-10-01T00:40:18.711Z,955.3700
2022-10-01T00:40:29.771Z,955.3700
2022-10-01T00:40:40.832Z,955.3700
2022-10-01T00:40:51.882Z,955.3500
2022-10-01T00:41:02.922Z,955.3800
2022-10-01T00:41:13.961Z,955.3800
2022-10-01T00:41:25.030Z,955.3700
2022-10-01T00:41:36.304Z,955.3700
2022-10-01T00:41:47.593Z,955.3800
2022-10-01T00:41:58.652Z,955.3500
2022-10-01T00:42:09.722Z,955.3500
2022-10-01T00:42:20.789Z,955.3500
2022-10-01T00:42:31.833Z,955.3500
2022-10-01T00:42:42.892Z,955.3500
2022-10-01T00:42:53.951Z,955.3500
2022-10-01T00:43:04.992Z,955.3300
2022-10-01T00:43:16.042Z,955.3300
2022-10-01T00:43:27.089Z,955.3700
2022-10-01T00:43:38.151Z,955.3700
2022-10-01T00:43:49.248Z,955.3800
2022-10-01T00:44:00.322Z,955.3800
2022-10-01T00:44:11.392Z,955.3800
2022-10-01T00:44:22.431Z,955.4000
2022-10-01T00:44:33.505Z,955.4200
2022-10-01T00:44:44.569Z,955.4200
2022-10-01T00:44:55.649Z,955.4000
2022-10-01T00:45:06.712Z,955.4400
2022-10-01T00:45:17.774Z,955.4400
2022-10-01T00:45:28.907Z,955.4400
2022-10-01T00:45:39.966Z,955.4400
2022-10-01T00:45:51.076Z,955.4600
2022-10-01T00:46:02.237Z,955.4400
2022-10-01T00:46:13.414Z,955.4600
2022-10-01T00:46:24.522Z,955.4400
2022-10-01T00:46:35.647Z,955.4400
2022-10-01T00:46:46.722Z,955.4600
2022-10-01T00:46:57.829Z,955.4400
2022-10-01T00:47:08.881Z,955.4400
2022-10-01T00:47:19.950Z,955.4600
2022-10-01T00:47:31.082Z,955.4600
2022-10-01T00:47:42.143Z,955.4600
2022-10-01T00:47:53.214Z,955.4800
2022-10-01T00:48:04.271Z,955.4800
2022-10-01T00:48:15.351Z,955.4600
2022-10-01T00:48:26.418Z,955.4600
2022-10-01T00:48:37.472Z,955.4600
2022-10-01T00:48:48.542Z,955.4800
2022-10-01T00:48:59.637Z,955.4800
2022-10-01T00:49:10.681Z,955.4800
2022-10-01T00:49:21.739Z,955.4800
2022-10-01T00:49:32.802Z,955.4800
2022-10-01T00:49:43.866Z,955.4600
2022-10-01T00:49:59.217Z,955.4600
2022-10-01T00:50:10.640Z,955.4600
2022-10-01T00:50:21.681Z,955.4600
2022-10-01T00:50:32.752Z,955.4600
2022-10-01T00:50:43.845Z,955.4600
2022-10-01T00:50:54.892Z,955.4400
2022-10-01T00:51:05.954Z,955.4600
2022-10-01T00:51:17.012Z,955.4400
2022-10-01T00:51:28.042Z,955.4400
2022-10-01T00:51:39.112Z,955.4400
2022-10-01T00:51:50.178Z,955.4600
2022-10-01T00:52:01.240Z,955.4600
2022-10-01T00:52:12.302Z,955.4400
2022-10-01T00:52:23.371Z,955.4400
2022-10-01T00:52:34.450Z,955.4400
2022-10-01T00:52:45.526Z,955.4400
2022-10-01T00:52:56.592Z,955.4400
2022-10-01T00:53:07.656Z,955.4400
2022-10-01T00:53:18.722Z,955.4400
2022-10-01T00:53:29.761Z,955.4400
2022-10-01T00:53:40.832Z,955.4400
2022-10-01T00:53:51.899Z,955.4600
2022-10-01T00:54:03.015Z,955.4400
2022-10-01T00:54:14.061Z,955.4400
2022-10-01T00:54:25.131Z,955.4400
2022-10-01T00:54:36.192Z,955.4400
2022-10-01T00:54:47.252Z,955.4600
2022-10-01T00:54:58.292Z,955.4600
2022-10-01T00:55:09.363Z,955.4600
2022-10-01T00:55:20.440Z,955.4800
2022-10-01T00:55:31.487Z,955.4600
2022-10-01T00:55:42.559Z,955.4400
2022-10-01T00:55:53.640Z,955.4400
2022-10-01T00:56:04.703Z,955.4400
2022-10-01T00:56:15.791Z,955.4200
2022-10-01T00:56:26.831Z,955.4400
2022-10-01T00:56:37.892Z,955.4400
2022-10-01T00:56:48.968Z,955.4200
2022-10-01T00:57:00.031Z,955.4400
2022-10-01T00:57:11.081Z,955.4400
2022-10-01T00:57:22.152Z,955.4200
2022-10-01T00:57:33.211Z,955.4200
2022-10-01T00:57:44.290Z,955.4200
2022-10-01T00:57:55.341Z,955.4000
2022-10-01T00:58:06.412Z,955.4000
2022-10-01T00:58:17.481Z,955.4000
2022-10-01T00:58:28.541Z,955.4000
2022-10-01T00:58:39.581Z,955.4000
2022-10-01T00:58:50.642Z,955.4000
2022-10-01T00:59:01.705Z,955.4200
2022-10-01T00:59:12.781Z,955.4000
2022-10-01T00:59:23.842Z,955.4000
2022-10-01T00:59:34.883Z,955.4000
2022-10-01T00:59:45.952Z,955.4000
2022-10-01T00:59:57.022Z,955.4200
2022-10-01T01:00:08.081Z,955.4200
2022-10-01T01:00:19.141Z,955.3800
2022-10-01T01:00:30.213Z,955.4000
2022-10-01T01:00:41.281Z,955.4000
2022-10-01T01:00:52.444Z,955.4000
2022-10-01T01:01:03.562Z,955.3800
2022-10-01T01:01:14.684Z,955.4000
2022-10-01T01:01:25.806Z,955.3800
2022-10-01T01:01:37.392Z,955.3700
2022-10-01T01:01:49.088Z,955.3800
2022-10-01T01:02:00.488Z,955.3800
2022-10-01T01:02:11.618Z,955.3800
2022-10-01T01:02:22.740Z,955.3700
2022-10-01T01:02:33.954Z,955.3700
2022-10-01T01:02:45.080Z,955.3500
2022-10-01T01:02:56.206Z,955.3300
2022-10-01T01:03:07.242Z,955.3300
2022-10-01T01:03:18.285Z,955.3300
2022-10-01T01:03:29.321Z,955.3300
2022-10-01T01:03:40.382Z,955.3500
2022-10-01T01:03:51.460Z,955.3700
2022-10-01T01:04:02.521Z,955.3700
2022-10-01T01:04:13.612Z,955.3500
2022-10-01T01:04:24.679Z,955.3700
2022-10-01T01:04:35.742Z,955.3700
2022-10-01T01:04:46.811Z,955.3500
2022-10-01T01:04:57.862Z,955.3700
2022-10-01T01:05:08.955Z,955.3700
2022-10-01T01:05:19.994Z,955.3700
2022-10-01T01:05:31.079Z,955.3800
2022-10-01T01:05:42.123Z,955.3800
2022-10-01T01:05:53.206Z,955.4000
2022-10-01T01:06:04.224Z,955.4000
2022-10-01T01:06:15.281Z,955.3800
2022-10-01T01:06:26.352Z,955.4000
2022-10-01T01:06:37.420Z,955.4000
2022-10-01T01:06:48.481Z,955.4000
2022-10-01T01:06:59.552Z,955.3800
2022-10-01T01:07:10.598Z,955.4000
2022-10-01T01:07:21.632Z,955.4000
2022-10-01T01:07:32.703Z,955.4000
2022-10-01T01:07:43.779Z,955.4000
2022-10-01T01:07:54.834Z,955.4000
2022-10-01T01:08:05.892Z,955.4200
2022-10-01T01:08:16.952Z,955.4000
2022-10-01T01:08:27.991Z,955.4000
2022-10-01T01:08:39.088Z,955.4000
2022-10-01T01:08:50.151Z,955.4000
2022-10-01T01:09:01.213Z,955.3800
2022-10-01T01:09:12.280Z,955.3800
2022-10-01T01:09:23.371Z,955.3800
2022-10-01T01:09:34.439Z,955.3800
2022-10-01T01:09:45.502Z,955.3800
2022-10-01T01:09:56.564Z,955.3800
2022-10-01T01:10:07.621Z,955.4000
2022-10-01T01:10:18.691Z,955.3800
2022-10-01T01:10:29.761Z,955.3800
2022-10-01T01:10:40.939Z,955.4000
2022-10-01T01:10:52.022Z,955.4000
2022-10-01T01:11:03.073Z,955.4000
2022-10-01T01:11:14.131Z,955.4000
2022-10-01T01:11:25.172Z,955.4000
2022-10-01T01:11:36.512Z,955.4000
2022-10-01T01:11:47.912Z,955.4200
2022-10-01T01:11:58.972Z,955.4400
2022-10-01T01:12:10.031Z,955.4400
2022-10-01T01:12:21.071Z,955.4400
2022-10-01T01:12:32.131Z,955.4600
2022-10-01T01:12:43.202Z,955.4600
2022-10-01T01:12:54.243Z,955.4600
2022-10-01T01:13:05.311Z,955.5000
2022-10-01T01:13:16.390Z,955.5000
2022-10-01T01:13:27.451Z,955.5000
2022-10-01T01:13:38.512Z,955.5400
2022-10-01T01:13:49.588Z,955.5600
2022-10-01T01:14:00.641Z,955.5600
2022-10-01T01:14:11.701Z,955.5600
2022-10-01T01:14:22.751Z,955.5800
2022-10-01T01:14:33.853Z,955.5600
2022-10-01T01:14:45.105Z,955.5800
2022-10-01T01:14:56.169Z,955.6000
2022-10-01T01:15:07.237Z,955.6000
2022-10-01T01:15:18.302Z,955.6000
2022-10-01T01:15:29.564Z,955.6000
2022-10-01T01:15:40.670Z,955.5600
2022-10-01T01:15:51.792Z,955.5800
2022-10-01T01:16:02.931Z,955.5800
2022-10-01T01:16:14.018Z,955.5800
2022-10-01T01:16:25.154Z,955.5400
2022-10-01T01:16:36.249Z,955.5400
2022-10-01T01:16:47.330Z,955.5200
2022-10-01T01:16:58.399Z,955.5000
2022-10-01T01:17:09.472Z,955.4800
2022-10-01T01:17:20.552Z,955.4600
2022-10-01T01:17:31.622Z,955.4400
2022-10-01T01:17:42.693Z,955.4000
2022-10-01T01:17:53.760Z,955.3800
2022-10-01T01:18:04.847Z,955.3800
2022-10-01T01:18:15.920Z,955.3500
2022-10-01T01:18:26.982Z,955.3300
2022-10-01T01:18:38.051Z,955.3100
2022-10-01T01:18:49.122Z,955.2900
2022-10-01T01:19:00.191Z,955.2700
2022-10-01T01:19:11.261Z,955.2500
2022-10-01T01:19:22.329Z,955.2300
2022-10-01T01:19:33.391Z,955.2100
2022-10-01T01:19:44.472Z,955.1900
2022-10-01T01:19:55.552Z,955.1900
2022-10-01T01:20:06.611Z,955.1900
2022-10-01T01:20:17.679Z,955.1900
2022-10-01T01:20:28.776Z,955.2100
2022-10-01T01:20:39.823Z,955.2300
2022-10-01T01:20:50.882Z,955.2300
2022-10-01T01:21:01.945Z,955.2500
2022-10-01T01:21:12.991Z,955.2500
2022-10-01T01:21:24.052Z,955.2900
2022-10-01T01:21:35.353Z,955.3100
2022-10-01T01:21:46.620Z,955.3300
2022-10-01T01:21:57.682Z,955.3700
2022-10-01T01:22:08.752Z,955.3700
2022-10-01T01:22:19.823Z,955.4000
2022-10-01T01:22:30.872Z,955.4200
2022-10-01T01:22:41.951Z,955.4400
2022-10-01T01:22:53.002Z,955.4600
2022-10-01T01:23:04.041Z,955.4800
2022-10-01T01:23:15.082Z,955.4600
2022-10-01T01:23:26.129Z,955.4800
2022-10-01T01:23:37.201Z,955.4800
2022-10-01T01:23:48.241Z,955.5000
2022-10-01T01:23:59.310Z,955.5000
2022-10-01T01:24:10.375Z,955.4800
2022-10-01T01:24:21.442Z,955.4800
2022-10-01T01:24:32.520Z,955.4800
2022-10-01T01:24:43.588Z,955.4600
2022-10-01T01:24:54.663Z,955.4400
2022-10-01T01:25:05.724Z,955.4200
2022-10-01T01:25:16.795Z,955.4000
2022-10-01T01:25:27.902Z,955.4000
2022-10-01T01:25:38.972Z,955.4000
2022-10-01T01:25:50.032Z,955.3800
2022-10-01T01:26:01.093Z,955.3800
2022-10-01T01:26:12.171Z,955.3700
2022-10-01T01:26:23.233Z,955.3700
2022-10-01T01:26:34.283Z,955.3500
2022-10-01T01:26:45.321Z,955.3500
2022-10-01T01:26:56.371Z,955.3100
2022-10-01T01:27:07.432Z,955.2900
2022-10-01T01:27:18.502Z,955.2700
2022-10-01T01:27:29.592Z,955.2700
2022-10-01T01:27:40.682Z,955.2700
2022-10-01T01:27:51.799Z,955.2700
2022-10-01T01:28:02.911Z,955.2700
2022-10-01T01:28:14.143Z,955.2700
2022-10-01T01:28:25.261Z,955.2900
2022-10-01T01:28:36.322Z,955.2900
2022-10-01T01:28:47.392Z,955.2900
2022-10-01T01:28:58.441Z,955.2900
2022-10-01T01:29:09.481Z,955.2900
2022-10-01T01:29:20.542Z,955.3100
2022-10-01T01:29:31.620Z,955.2900
2022-10-01T01:29:42.682Z,955.3100
2022-10-01T01:29:53.723Z,955.2900
2022-10-01T01:30:04.816Z,955.3100
2022-10-01T01:30:15.881Z,955.3100
2022-10-01T01:30:26.943Z,955.3100
2022-10-01T01:30:38.004Z,955.2900
2022-10-01T01:30:49.103Z,955.2900
2022-10-01T01:31:00.239Z,955.3100
2022-10-01T01:31:11.368Z,955.3100
2022-10-01T01:31:22.576Z,955.3300
2022-10-01T01:31:34.112Z,955.3300
2022-10-01T01:31:45.312Z,955.3300
2022-10-01T01:31:56.390Z,955.3300
2022-10-01T01:32:11.435Z,955.3100
2022-10-01T01:32:24.412Z,955.3300
2022-10-01T01:32:35.481Z,955.3100
2022-10-01T01:32:46.551Z,955.3300
2022-10-01T01:32:57.611Z,955.3300
2022-10-01T01:33:08.682Z,955.3300
2022-10-01T01:33:19.722Z,955.3300
2022-10-01T01:33:30.782Z,955.3500
2022-10-01T01:33:41.851Z,955.3700
2022-10-01T01:33:52.921Z,955.3700
2022-10-01T01:34:03.990Z,955.3800
2022-10-01T01:34:15.052Z,955.3800
2022-10-01T01:34:26.112Z,955.4000
2022-10-01T01:34:37.157Z,955.4000
2022-10-01T01:34:48.259Z,955.4000
2022-10-01T01:34:59.322Z,955.4000
2022-10-01T01:35:10.412Z,955.4000
2022-10-01T01:35:21.521Z,955.4200
2022-10-01T01:35:32.591Z,955.4200
2022-10-01T01:35:43.650Z,955.4400
2022-10-01T01:35:54.713Z,955.4400
2022-10-01T01:36:05.775Z,955.4400
2022-10-01T01:36:16.824Z,955.4400
2022-10-01T01:36:27.872Z,955.4400
2022-10-01T01:36:39.071Z,955.4600
2022-10-01T01:36:50.122Z,955.4400
2022-10-01T01:37:01.161Z,955.4400
2022-10-01T01:37:12.236Z,955.4600
2022-10-01T01:37:23.292Z,955.4800
2022-10-01T01:37:34.393Z,955.4800
2022-10-01T01:37:45.472Z,955.4600
2022-10-01T01:37:56.512Z,955.4600
2022-10-01T01:38:07.551Z,955.4800
2022-10-01T01:38:18.591Z,955.4600
2022-10-01T01:38:29.632Z,955.4800
2022-10-01T01:38:40.674Z,955.5000
2022-10-01T01:38:51.741Z,955.4800
2022-10-01T01:39:02.802Z,955.4600
2022-10-01T01:39:13.871Z,955.4800
2022-10-01T01:39:24.953Z,955.4800
2022-10-01T01:39:36.001Z,955.4600
2022-10-01T01:39:47.069Z,955.5000
2022-10-01T01:39:58.129Z,955.5000
2022-10-01T01:40:09.191Z,955.5000
2022-10-01T01:40:20.282Z,955.4800
2022-10-01T01:40:31.331Z,955.4800
2022-10-01T01:40:42.391Z,955.4800
2022-10-01T01:40:53.452Z,955.4800
2022-10-01T01:41:04.511Z,955.4800
2022-10-01T01:41:15.561Z,955.4600
2022-10-01T01:41:26.631Z,955.4600
2022-10-01T01:41:37.724Z,955.4600
2022-10-01T01:41:48.787Z,955.4800
2022-10-01T01:41:59.840Z,955.4800
2022-10-01T01:42:10.883Z,955.4800
2022-10-01T01:42:21.941Z,955.4600
2022-10-01T01:42:32.996Z,955.4600
2022-10-01T01:42:44.068Z,955.4800
2022-10-01T01:42:55.130Z,955.4800
2022-10-01T01:43:06.192Z,955.4600
2022-10-01T01:43:17.252Z,955.4600
2022-10-01T01:43:28.312Z,955.4600
2022-10-01T01:43:39.371Z,955.4600
2022-10-01T01:43:50.431Z,955.4800
2022-10-01T01:44:01.472Z,955.4600
2022-10-01T01:44:12.514Z,955.4400
2022-10-01T01:44:23.571Z,955.4400
2022-10-01T01:44:34.641Z,955.4400
2022-10-01T01:44:45.721Z,955.4400
2022-10-01T01:44:56.753Z,955.4400
2022-10-01T01:45:07.812Z,955.4400
2022-10-01T01:45:18.881Z,955.4400
2022-10-01T01:45:30.011Z,955.4600
2022-10-01T01:45:41.117Z,955.4600
2022-10-01T01:45:52.309Z,955.4400
2022-10-01T01:46:03.584Z,955.4400
2022-10-01T01:46:14.662Z,955.4600
2022-10-01T01:46:25.713Z,955.4400
2022-10-01T01:46:36.781Z,955.4400
2022-10-01T01:46:47.842Z,955.4400
2022-10-01T01:46:58.911Z,955.4400
2022-10-01T01:47:09.980Z,955.4400
2022-10-01T01:47:21.049Z,955.4400
2022-10-01T01:47:32.102Z,955.4600
2022-10-01T01:47:43.163Z,955.4600
2022-10-01T01:47:54.223Z,955.4600
2022-10-01T01:48:05.292Z,955.4600
2022-10-01T01:48:16.351Z,955.4600
2022-10-01T01:48:27.421Z,955.4600
2022-10-01T01:48:38.491Z,955.4600
2022-10-01T01:48:49.552Z,955.4600
2022-10-01T01:49:00.612Z,955.4600
2022-10-01T01:49:11.681Z,955.4400
2022-10-01T01:49:22.755Z,955.4600
2022-10-01T01:49:33.809Z,955.4600
2022-10-01T01:49:44.872Z,955.4600
2022-10-01T01:49:55.919Z,955.4600
2022-10-01T01:50:06.980Z,955.4800
2022-10-01T01:50:18.042Z,955.4800
2022-10-01T01:50:29.138Z,955.4800
2022-10-01T01:50:40.211Z,955.4600
2022-10-01T01:50:51.272Z,955.4600
2022-10-01T01:51:02.331Z,955.4600
2022-10-01T01:51:13.415Z,955.4600
2022-10-01T01:51:24.463Z,955.4600
2022-10-01T01:51:35.920Z,955.4600
2022-10-01T01:51:47.282Z,955.4600
2022-10-01T01:51:58.341Z,955.4600
2022-10-01T01:52:09.398Z,955.4800
2022-10-01T01:52:20.433Z,955.4800
2022-10-01T01:52:31.504Z,955.4800
2022-10-01T01:52:42.572Z,955.4800
2022-10-01T01:52:53.650Z,955.4600
2022-10-01T01:53:04.692Z,955.4600
2022-10-01T01:53:15.751Z,955.4600
2022-10-01T01:53:26.810Z,955.4600
2022-10-01T01:53:37.881Z,955.4600
2022-10-01T01:53:48.948Z,955.4400
2022-10-01T01:54:00.002Z,955.4400
2022-10-01T01:54:11.062Z,955.4200
2022-10-01T01:54:22.112Z,955.4200
2022-10-01T01:54:33.172Z,955.4000
2022-10-01T01:54:44.231Z,955.4200
2022-10-01T01:54:55.302Z,955.4000
2022-10-01T01:55:06.362Z,955.4000
2022-10-01T01:55:17.442Z,955.4000
2022-10-01T01:55:28.512Z,955.4200
2022-10-01T01:55:39.551Z,955.4200
2022-10-01T01:55:50.641Z,955.3800
2022-10-01T01:56:01.701Z,955.4000
2022-10-01T01:56:12.779Z,955.4000
2022-10-01T01:56:23.842Z,955.4000
2022-10-01T01:56:34.941Z,955.3800
2022-10-01T01:56:46.001Z,955.3800
2022-10-01T01:56:57.051Z,955.4000
2022-10-01T01:57:08.112Z,955.4000
2022-10-01T01:57:19.179Z,955.4000
2022-10-01T01:57:30.242Z,955.4000
2022-10-01T01:57:41.309Z,955.4000
2022-10-01T01:57:52.361Z,955.4200
2022-10-01T01:58:03.440Z,955.4400
2022-10-01T01:58:14.502Z,955.4200
2022-10-01T01:58:25.583Z,955.4400
2022-10-01T01:58:36.636Z,955.4400
2022-10-01T01:58:47.692Z,955.4400
2022-10-01T01:58:58.780Z,955.4200
2022-10-01T01:59:09.863Z,955.4400
2022-10-01T01:59:20.929Z,955.4600
2022-10-01T01:59:31.982Z,955.4600
2022-10-01T01:59:43.052Z,955.4600
2022-10-01T01:59:54.104Z,955.4600
2022-10-01T02:00:05.154Z,955.4800
2022-10-01T02:00:16.219Z,955.4800
2022-10-01T02:00:27.261Z,955.4400
2022-10-01T02:00:38.331Z,955.4600
2022-10-01T02:00:49.402Z,955.4600
2022-10-01T02:01:00.484Z,955.4400
2022-10-01T02:01:11.581Z,955.4400
2022-10-01T02:01:22.623Z,955.4200
2022-10-01T02:01:34.059Z,955.4200
2022-10-01T02:01:45.433Z,955.4000
2022-10-01T02:01:56.636Z,955.4000
2022-10-01T02:02:07.827Z,955.4000
2022-10-01T02:02:18.941Z,955.4000
2022-10-01T02:02:30.035Z,955.4000
2022-10-01T02:02:41.163Z,955.3800
2022-10-01T02:02:52.278Z,955.3800
2022-10-01T02:03:03.354Z,955.3700
2022-10-01T02:03:14.387Z,955.3700
2022-10-01T02:03:25.441Z,955.3500
2022-10-01T02:03:36.498Z,955.3500
2022-10-01T02:03:47.552Z,955.3500
2022-10-01T02:03:58.626Z,955.3500
2022-10-01T02:04:09.681Z,955.3300
2022-10-01T02:04:20.742Z,955.3500
2022-10-01T02:04:31.813Z,955.3300
2022-10-01T02:04:42.869Z,955.3500
2022-10-01T02:04:53.916Z,955.3300
2022-10-01T02:05:04.980Z,955.3100
2022-10-01T02:05:16.065Z,955.3100
2022-10-01T02:05:27.129Z,955.3300
2022-10-01T02:05:38.200Z,955.3300
2022-10-01T02:05:49.252Z,955.3300
2022-10-01T02:06:00.313Z,955.3300
2022-10-01T02:06:11.412Z,955.3500
2022-10-01T02:06:22.496Z,955.3500
2022-10-01T02:06:33.549Z,955.3500
2022-10-01T02:06:44.611Z,955.3500
2022-10-01T02:06:55.682Z,955.3500
2022-10-01T02:07:06.745Z,955.3500
2022-10-01T02:07:17.791Z,955.3500
2022-10-01T02:07:28.870Z,955.3500
2022-10-01T02:07:40.008Z,955.3100
2022-10-01T02:07:51.073Z,955.3300
2022-10-01T02:08:02.141Z,955.3300
2022-10-01T02:08:13.209Z,955.3300
2022-10-01T02:08:24.262Z,955.3500
2022-10-01T02:08:35.324Z,955.3100
2022-10-01T02:08:46.382Z,955.3300
2022-10-01T02:08:57.431Z,955.3300
2022-10-01T02:09:08.491Z,955.2900
2022-10-01T02:09:19.648Z,955.2900
2022-10-01T02:09:30.681Z,955.2900
2022-10-01T02:09:41.753Z,955.2700
2022-10-01T02:09:52.822Z,955.2900
2022-10-01T02:10:03.871Z,955.2900
2022-10-01T02:10:14.925Z,955.2900
2022-10-01T02:10:25.969Z,955.2900
2022-10-01T02:10:37.031Z,955.2500
2022-10-01T02:10:48.094Z,955.2700
2022-10-01T02:10:59.158Z,955.2700